createdAt,value
2022-12-05T00:02:23.010Z,13.67
2022-12-05T00:04:49.798Z,13.20
2022-12-05T00:07:16.521Z,14.67
2022-12-05T00:09:43.455Z,13.87
2022-12-05T00:12:10.162Z,14.03
2022-12-05T00:14:36.896Z,15.27
2022-12-05T00:17:03.793Z,14.83
2022-12-05T00:19:30.528Z,16.70
2022-12-05T00:21:57.685Z,17.37
2022-12-05T00:24:24.472Z,16.27
2022-12-05T00:26:51.380Z,17.47
2022-12-05T00:29:18.477Z,20.53
2022-12-05T00:31:45.336Z,19.93
2022-12-05T00:34:12.202Z,19.87
2022-12-05T00:36:39.516Z,21.47
2022-12-05T00:39:11.131Z,20.70
2022-12-05T00:41:38.592Z,20.60
2022-12-05T00:44:06.061Z,18.40
2022-12-05T00:46:35.187Z,16.63
2022-12-05T00:49:04.630Z,16.50
2022-12-05T00:51:36.516Z,17.83
2022-12-05T00:54:11.916Z,18.47
2022-12-05T00:56:39.434Z,18.67
2022-12-05T00:59:06.675Z,17.20
2022-12-05T01:01:38.544Z,17.67
2022-12-05T01:04:21.668Z,17.50
2022-12-05T01:06:49.285Z,17.57
2022-12-05T01:09:20.474Z,16.43
2022-12-05T01:11:48.618Z,17.10
2022-12-05T01:14:18.821Z,16.50
2022-12-05T01:16:48.383Z,17.40
2022-12-05T01:19:28.091Z,18.53
2022-12-05T01:21:56.295Z,17.70
2022-12-05T01:24:27.911Z,17.30
2022-12-05T01:26:55.821Z,18.30
2022-12-05T01:30:02.170Z,17.83
2022-12-05T01:32:29.139Z,17.87
2022-12-05T01:34:56.487Z,18.13
2022-12-05T01:37:25.265Z,17.73
2022-12-05T01:39:52.296Z,18.70
2022-12-05T01:42:26.359Z,17.43
2022-12-05T01:45:06.949Z,17.60
2022-12-05T01:51:38.775Z,18.17
2022-12-05T01:54:09.259Z,16.30
2022-12-05T01:56:46.256Z,17.83
2022-12-05T01:59:15.399Z,16.70
2022-12-05T02:01:42.358Z,18.07
2022-12-05T02:04:20.148Z,16.50
2022-12-05T02:07:13.098Z,16.70
2022-12-05T02:09:48.500Z,17.90
2022-12-05T02:12:15.556Z,17.53
2022-12-05T02:15:12.969Z,15.40
2022-12-05T02:17:54.092Z,16.07
2022-12-05T04:37:21.959Z,11.57
2022-12-05T04:40:04.089Z,12.10
2022-12-05T04:42:42.175Z,11.53
2022-12-05T04:45:20.067Z,12.30
2022-12-05T04:48:01.662Z,11.70
2022-12-05T04:50:33.543Z,11.53
2022-12-05T04:53:05.601Z,12.57
2022-12-05T04:55:44.499Z,10.53
2022-12-05T04:58:15.633Z,10.90
2022-12-05T05:01:36.894Z,11.20
2022-12-05T05:11:21.350Z,10.63
2022-12-05T05:13:53.650Z,11.53
2022-12-05T05:16:25.854Z,10.73
2022-12-05T05:18:53.988Z,12.60
2022-12-05T06:02:41.072Z,10.73
2022-12-05T06:05:08.482Z,10.93
2022-12-05T06:07:35.716Z,11.00
2022-12-05T06:10:02.748Z,11.20
2022-12-05T06:12:29.615Z,11.33
2022-12-05T06:14:56.500Z,11.03
2022-12-05T06:17:23.357Z,9.70
2022-12-05T06:19:50.134Z,9.57
2022-12-05T06:22:16.974Z,10.03
2022-12-05T06:24:43.844Z,9.27
2022-12-05T06:27:10.697Z,10.73
2022-12-05T06:29:37.452Z,9.03
2022-12-05T06:32:04.922Z,9.63
2022-12-05T06:34:32.694Z,10.37
2022-12-05T06:37:00.345Z,9.87
2022-12-05T06:39:27.968Z,9.33
2022-12-05T06:41:54.868Z,10.23
2022-12-05T06:44:21.991Z,10.63
2022-12-05T06:46:49.217Z,10.20
2022-12-05T06:49:16.076Z,10.93
2022-12-05T06:51:42.928Z,10.57
2022-12-05T06:54:12.766Z,11.17
2022-12-05T06:56:40.267Z,11.40
2022-12-05T06:59:07.058Z,9.20
2022-12-05T07:01:42.126Z,9.70
2022-12-05T07:04:17.956Z,9.63
2022-12-05T07:06:50.155Z,9.67
2022-12-05T07:09:20.293Z,9.60
2022-12-05T07:11:50.118Z,10.53
2022-12-05T07:14:46.416Z,11.13
2022-12-05T07:17:05.266Z,10.20
2022-12-05T07:19:32.200Z,10.17
2022-12-05T07:21:59.042Z,12.07
2022-12-05T07:24:25.940Z,11.60
2022-12-05T07:26:53.831Z,11.07
2022-12-05T07:29:20.850Z,10.43
2022-12-05T07:31:47.964Z,11.87
2022-12-05T07:34:14.797Z,10.40
2022-12-05T07:36:41.830Z,10.90
2022-12-05T07:39:10.345Z,12.57
2022-12-05T07:41:37.588Z,11.67
2022-12-05T07:44:04.652Z,11.80
2022-12-05T07:46:31.606Z,10.80
2022-12-05T07:48:58.588Z,10.40
2022-12-05T07:51:25.647Z,10.27
2022-12-05T07:53:52.737Z,12.33
2022-12-05T07:56:20.668Z,12.13
2022-12-05T07:58:50.310Z,12.57
2022-12-05T08:01:21.358Z,11.77
2022-12-05T08:03:51.322Z,11.87
2022-12-05T08:06:21.967Z,12.00
2022-12-05T08:08:52.433Z,12.23
2022-12-05T08:11:30.322Z,11.27
2022-12-05T08:14:00.072Z,12.37
2022-12-05T08:16:30.684Z,11.47
2022-12-05T08:19:04.553Z,12.10
2022-12-05T08:21:32.396Z,12.53
2022-12-05T08:23:59.645Z,12.87
2022-12-05T08:26:32.839Z,13.23
2022-12-05T08:29:10.635Z,12.93
2022-12-05T08:31:49.220Z,12.70
2022-12-05T08:34:19.971Z,13.07
2022-12-05T08:36:47.045Z,13.90
2022-12-05T08:39:17.869Z,12.70
2022-12-05T08:41:51.849Z,14.70
2022-12-05T08:44:26.435Z,14.13
2022-12-05T08:47:00.203Z,13.30
2022-12-05T08:54:08.716Z,12.87
2022-12-05T08:56:41.353Z,13.80
2022-12-05T08:59:11.465Z,13.90
2022-12-05T09:01:43.203Z,13.40
2022-12-05T09:04:52.394Z,13.77
2022-12-05T09:08:13.352Z,12.20
2022-12-05T09:22:46.790Z,13.63
2022-12-05T09:25:52.751Z,13.27
2022-12-05T09:28:22.405Z,14.63
2022-12-05T09:30:58.278Z,14.37
2022-12-05T09:33:28.978Z,14.27
2022-12-05T09:35:56.049Z,15.67
2022-12-05T09:38:23.652Z,13.30
2022-12-05T09:41:13.646Z,13.00
2022-12-05T09:44:05.993Z,12.43
2022-12-05T09:47:10.784Z,13.37
2022-12-05T09:49:49.975Z,13.60
2022-12-05T09:52:29.480Z,13.47
2022-12-05T09:55:00.890Z,14.17
2022-12-05T09:57:45.276Z,13.03
2022-12-05T10:00:13.045Z,13.67
2022-12-05T10:02:59.480Z,14.43
2022-12-05T10:05:48.301Z,14.60
2022-12-05T10:08:43.126Z,16.53
2022-12-05T10:11:26.345Z,15.57
2022-12-05T10:14:06.600Z,13.93
2022-12-05T10:16:48.276Z,15.23
2022-12-05T10:19:24.393Z,14.67
2022-12-05T10:21:59.029Z,14.07
2022-12-05T10:24:40.776Z,13.63
2022-12-05T10:27:18.338Z,12.90
2022-12-05T10:30:06.658Z,14.70
2022-12-05T10:33:06.197Z,13.63
2022-12-05T10:35:39.558Z,14.27
2022-12-05T10:38:17.120Z,12.53
2022-12-05T10:40:51.762Z,16.03
2022-12-05T10:43:29.545Z,15.10
2022-12-05T10:45:57.474Z,15.03
2022-12-05T10:48:25.213Z,14.83
2022-12-05T10:50:57.746Z,13.80
2022-12-05T10:53:28.124Z,14.77
2022-12-05T10:56:28.907Z,15.13
2022-12-05T10:58:58.101Z,14.87
2022-12-05T11:01:26.956Z,16.40
2022-12-05T11:04:01.089Z,16.57
2022-12-05T11:06:32.259Z,14.03
2022-12-05T11:09:21.277Z,14.23
2022-12-05T11:12:18.482Z,13.53
2022-12-05T11:14:57.870Z,12.63
2022-12-05T11:17:37.347Z,12.93
2022-12-05T11:20:24.054Z,12.73
2022-12-05T11:22:56.875Z,13.53
2022-12-05T11:25:33.033Z,13.37
2022-12-05T11:28:31.898Z,12.60
2022-12-05T11:31:22.300Z,11.90
2022-12-05T11:34:17.199Z,14.13
2022-12-05T11:36:57.073Z,13.60
2022-12-05T11:39:25.317Z,13.73
2022-12-05T11:45:49.972Z,16.80
2022-12-05T11:48:45.399Z,18.40
2022-12-05T11:51:59.942Z,20.47
2022-12-05T11:55:05.418Z,19.33
2022-12-05T11:57:32.867Z,14.40
2022-12-05T12:04:24.981Z,14.63
2022-12-05T12:07:22.499Z,14.90
2022-12-05T12:14:16.294Z,15.03
2022-12-05T12:17:01.002Z,15.77
2022-12-05T12:20:19.679Z,15.00
2022-12-05T12:22:58.069Z,16.33
2022-12-05T12:26:15.928Z,16.83
2022-12-05T12:29:22.204Z,17.30
2022-12-05T12:32:30.056Z,19.60
2022-12-05T12:35:39.044Z,19.00
2022-12-05T12:38:49.667Z,17.80
2022-12-05T12:42:12.083Z,18.77
2022-12-05T12:46:03.445Z,17.03
2022-12-05T12:49:22.860Z,16.47
2022-12-05T12:52:09.603Z,17.07
2022-12-05T12:55:06.018Z,17.17
2022-12-05T12:58:09.536Z,17.43
2022-12-05T13:01:37.285Z,16.87
2022-12-05T13:08:56.850Z,16.13
2022-12-05T13:11:54.585Z,14.67
2022-12-05T13:18:16.751Z,16.27
2022-12-05T13:33:31.813Z,18.17
2022-12-05T13:37:14.608Z,18.87
2022-12-05T13:40:54.309Z,20.20
2022-12-05T13:43:53.411Z,17.73
2022-12-05T13:50:23.855Z,17.23
2022-12-05T13:57:22.109Z,17.90
2022-12-05T14:07:20.149Z,23.57
2022-12-05T14:10:05.257Z,19.10
2022-12-05T14:13:31.643Z,16.53
2022-12-05T14:16:57.189Z,16.50
2022-12-05T14:28:02.791Z,15.13
2022-12-05T14:31:41.239Z,13.83
2022-12-05T14:34:38.276Z,14.90
2022-12-05T14:37:34.512Z,14.60
2022-12-05T14:40:36.956Z,15.50
2022-12-05T14:44:10.405Z,14.87
2022-12-05T14:46:47.838Z,15.93
2022-12-05T14:52:56.123Z,13.77
2022-12-05T15:06:12.408Z,13.80
2022-12-05T15:16:10.157Z,12.57
2022-12-05T15:25:48.646Z,12.30
2022-12-05T16:05:05.550Z,12.77
2022-12-05T16:07:35.375Z,13.53
2022-12-05T16:22:48.979Z,14.37
2022-12-05T16:25:53.549Z,12.60
2022-12-05T16:34:53.084Z,12.40
2022-12-05T16:41:22.003Z,12.57
2022-12-05T16:44:16.179Z,12.23
2022-12-05T16:46:56.960Z,11.00
2022-12-05T16:49:46.065Z,13.53
2022-12-05T16:52:43.260Z,11.40
2022-12-05T16:55:38.767Z,15.63
2022-12-05T17:02:32.218Z,11.77
2022-12-05T17:05:22.684Z,12.37
2022-12-05T17:08:05.742Z,13.43
2022-12-05T17:10:47.540Z,11.13
2022-12-05T17:13:32.047Z,12.50
2022-12-05T17:16:06.609Z,11.77
2022-12-05T17:18:53.469Z,13.13
2022-12-05T17:21:39.134Z,13.43
2022-12-05T17:37:29.583Z,10.00
2022-12-05T17:40:14.537Z,10.47
2022-12-05T17:46:05.446Z,9.57
2022-12-05T17:48:57.308Z,9.70
2022-12-05T17:51:52.507Z,8.73
2022-12-05T17:54:36.238Z,9.07
2022-12-05T17:57:23.357Z,10.83
2022-12-05T17:59:58.997Z,7.93
2022-12-05T18:02:29.809Z,9.43
2022-12-05T18:05:02.785Z,9.23
2022-12-05T18:07:33.282Z,9.57
2022-12-05T18:10:07.070Z,8.77
2022-12-05T18:12:40.978Z,11.63
2022-12-05T18:15:15.230Z,8.23
2022-12-05T18:17:42.428Z,7.03
2022-12-05T18:20:13.284Z,18.50
2022-12-05T18:22:40.280Z,8.70
2022-12-05T18:25:08.288Z,9.13
2022-12-05T18:27:36.867Z,8.00
2022-12-05T18:30:08.195Z,8.17
2022-12-05T18:32:41.820Z,8.47
2022-12-05T18:35:20.381Z,7.83
2022-12-05T18:37:52.316Z,7.27
2022-12-05T18:43:10.129Z,9.70
2022-12-05T18:45:39.852Z,8.33
2022-12-05T18:51:15.983Z,7.97
2022-12-05T18:53:53.244Z,8.77
2022-12-05T18:56:29.667Z,9.83
2022-12-05T18:59:01.837Z,9.03
2022-12-05T19:01:30.704Z,10.23
2022-12-05T19:04:00.064Z,9.23
2022-12-05T19:06:31.428Z,8.77
2022-12-05T19:09:07.330Z,8.57
2022-12-05T19:11:34.734Z,9.03
2022-12-05T19:14:04.771Z,8.33
2022-12-05T19:16:34.597Z,9.27
2022-12-05T19:19:05.093Z,8.07
2022-12-05T19:21:34.386Z,9.20
2022-12-05T19:24:03.527Z,8.23
2022-12-05T19:26:30.481Z,8.03
2022-12-05T19:28:57.886Z,8.57
2022-12-05T19:31:27.925Z,9.17
2022-12-05T19:33:59.837Z,10.73
2022-12-05T19:36:31.681Z,9.10
2022-12-05T19:38:59.628Z,9.73
2022-12-05T19:41:29.535Z,8.60
2022-12-05T19:44:00.092Z,9.07
2022-12-05T19:46:30.706Z,8.50
2022-12-05T19:49:02.464Z,8.03
2022-12-05T19:51:31.797Z,9.00
2022-12-05T19:54:01.525Z,8.77
2022-12-05T19:56:31.251Z,8.47
2022-12-05T19:58:59.501Z,7.97
2022-12-05T20:01:32.516Z,7.77
2022-12-05T20:04:03.049Z,7.93
2022-12-05T20:06:43.580Z,7.87
2022-12-05T20:09:13.960Z,7.17
2022-12-05T20:11:43.878Z,7.03
2022-12-05T20:14:13.420Z,8.00
2022-12-05T20:16:41.279Z,7.53
2022-12-05T20:19:08.998Z,7.13
2022-12-05T20:21:39.410Z,6.80
2022-12-05T20:24:07.779Z,7.63
2022-12-05T20:26:38.471Z,6.47
2022-12-05T20:29:07.023Z,6.70
2022-12-05T20:31:42.470Z,7.00
2022-12-05T20:34:15.082Z,6.63
2022-12-05T20:36:43.074Z,6.67
2022-12-05T20:39:17.594Z,7.97
2022-12-05T20:41:45.316Z,7.10
2022-12-05T20:44:16.765Z,6.87
2022-12-05T20:46:44.044Z,5.47
2022-12-05T20:49:13.681Z,6.20
2022-12-05T20:51:43.633Z,5.43
2022-12-05T20:54:13.043Z,6.13
2022-12-05T20:56:41.039Z,5.53
2022-12-05T20:59:10.536Z,5.33
2022-12-05T21:01:38.526Z,5.57
2022-12-05T21:04:07.589Z,6.73
2022-12-05T21:06:37.769Z,6.77
2022-12-05T21:09:15.074Z,6.43
2022-12-05T21:11:43.030Z,6.23
2022-12-05T21:14:10.344Z,6.23
2022-12-05T21:16:37.795Z,6.23
2022-12-05T21:19:04.806Z,6.10
2022-12-05T21:21:34.119Z,7.13
2022-12-05T21:24:03.392Z,7.00
2022-12-05T21:26:33.535Z,7.17
2022-12-05T21:29:02.243Z,7.53
2022-12-05T21:31:36.194Z,7.27
2022-12-05T21:34:08.069Z,7.07
2022-12-05T21:36:36.648Z,6.90
2022-12-05T21:39:05.302Z,7.43
2022-12-05T21:41:32.449Z,7.10
2022-12-05T21:44:00.802Z,7.57
2022-12-05T21:46:28.328Z,8.63
2022-12-05T21:51:52.546Z,9.20
2022-12-05T21:54:28.574Z,8.63
2022-12-05T21:56:55.485Z,8.77
2022-12-05T21:59:26.855Z,10.17
2022-12-05T22:01:55.513Z,10.17
2022-12-05T22:04:22.518Z,10.17
2022-12-05T22:06:55.330Z,9.97
2022-12-05T22:09:28.329Z,10.87
2022-12-05T22:12:01.381Z,9.73
2022-12-05T22:14:48.049Z,10.10
2022-12-05T22:21:21.220Z,10.70
2022-12-05T22:23:49.732Z,10.00
2022-12-05T22:26:22.971Z,9.80
2022-12-05T22:28:52.034Z,8.77
2022-12-05T22:31:20.330Z,9.47
2022-12-05T22:33:47.792Z,9.27
2022-12-05T22:36:18.046Z,9.33
2022-12-05T22:38:47.529Z,9.97
2022-12-05T22:41:21.865Z,10.20
2022-12-05T22:43:52.911Z,11.83
2022-12-05T22:46:21.518Z,11.90
2022-12-05T22:48:49.645Z,10.63
2022-12-05T22:51:18.838Z,11.67
2022-12-05T22:53:46.158Z,9.93
2022-12-05T22:56:16.669Z,10.97
2022-12-05T22:58:45.184Z,9.63
2022-12-05T23:01:18.773Z,10.83
2022-12-05T23:03:54.752Z,10.87
2022-12-05T23:06:23.762Z,10.93
2022-12-05T23:08:51.658Z,10.73
2022-12-05T23:11:20.880Z,11.07
2022-12-05T23:13:49.027Z,10.60
2022-12-05T23:16:22.815Z,11.87
2022-12-05T23:18:53.495Z,12.03
2022-12-05T23:21:37.202Z,10.87
2022-12-05T23:24:12.217Z,12.33
2022-12-05T23:26:45.582Z,11.80
2022-12-05T23:29:14.131Z,12.03
2022-12-05T23:31:42.430Z,11.63
2022-12-05T23:34:10.767Z,10.93
2022-12-05T23:36:38.236Z,11.13
2022-12-05T23:39:11.854Z,11.10
2022-12-05T23:41:48.934Z,10.63
2022-12-05T23:44:23.955Z,10.40
2022-12-05T23:47:07.834Z,10.23
2022-12-05T23:52:32.488Z,9.47
2022-12-05T23:55:16.560Z,9.93
2022-12-05T23:57:47.905Z,9.17
